createdAt,value
2023-03-19T00:02:28.775Z,4.10
2023-03-19T00:05:16.683Z,3.90
2023-03-19T00:08:04.356Z,3.80
2023-03-19T00:10:51.933Z,3.80
2023-03-19T00:13:40.365Z,3.70
2023-03-19T00:16:28.292Z,3.60
2023-03-19T00:19:15.977Z,3.60
2023-03-19T00:22:03.467Z,3.50
2023-03-19T00:24:50.922Z,3.40
2023-03-19T00:27:38.939Z,3.40
2023-03-19T00:30:27.264Z,3.40
2023-03-19T00:33:15.002Z,3.30
2023-03-19T00:36:06.037Z,3.40
2023-03-19T00:38:53.571Z,3.30
2023-03-19T00:41:41.092Z,3.30
2023-03-19T00:44:28.511Z,3.30
2023-03-19T00:47:15.930Z,3.20
2023-03-19T00:50:05.494Z,3.20
2023-03-19T00:52:53.113Z,3.20
2023-03-19T00:55:41.378Z,3.20
2023-03-19T00:58:28.832Z,3.20
2023-03-19T01:01:19.117Z,3.10
2023-03-19T01:04:06.679Z,3.00
2023-03-19T01:06:54.163Z,3.00
2023-03-19T01:09:42.134Z,3.00
2023-03-19T01:12:29.667Z,3.00
2023-03-19T01:15:17.856Z,3.10
2023-03-19T01:18:06.076Z,3.10
2023-03-19T01:20:53.662Z,3.10
2023-03-19T01:23:41.232Z,3.00
2023-03-19T01:26:28.833Z,3.00
2023-03-19T01:29:16.390Z,3.00
2023-03-19T01:32:04.212Z,2.90
2023-03-19T01:34:51.735Z,2.90
2023-03-19T01:37:39.397Z,2.90
2023-03-19T01:40:26.871Z,3.00
2023-03-19T01:43:23.868Z,3.10
2023-03-19T01:46:37.782Z,3.10
2023-03-19T01:49:29.034Z,3.00
2023-03-19T01:52:17.102Z,3.00
2023-03-19T01:55:07.472Z,3.00
2023-03-19T01:57:57.980Z,2.90
2023-03-19T02:00:46.756Z,2.90
2023-03-19T02:03:37.575Z,2.80
2023-03-19T02:06:25.062Z,2.70
2023-03-19T02:09:15.060Z,2.70
2023-03-19T02:12:02.681Z,2.60
2023-03-19T02:14:50.411Z,2.60
2023-03-19T02:17:38.683Z,2.60
2023-03-19T02:21:05.787Z,2.50
2023-03-19T02:24:42.401Z,2.50
2023-03-19T02:27:29.997Z,2.50
2023-03-19T02:30:32.788Z,2.50
2023-03-19T02:33:20.501Z,2.50
2023-03-19T02:36:17.362Z,2.50
2023-03-19T02:39:13.301Z,2.50
2023-03-19T02:42:03.236Z,2.70
2023-03-19T02:44:51.079Z,2.70
2023-03-19T02:47:38.632Z,2.70
2023-03-19T02:50:26.328Z,2.70
2023-03-19T02:53:13.897Z,2.70
2023-03-19T02:56:01.706Z,2.70
2023-03-19T02:58:49.209Z,2.70
2023-03-19T03:01:36.770Z,2.60
2023-03-19T03:04:24.453Z,2.60
2023-03-19T03:07:12.594Z,2.60
2023-03-19T03:10:00.236Z,2.60
2023-03-19T03:12:47.647Z,2.60
2023-03-19T03:15:35.331Z,2.60
2023-03-19T03:18:22.985Z,2.50
2023-03-19T03:21:10.498Z,2.50
2023-03-19T03:23:57.983Z,2.40
2023-03-19T03:26:45.794Z,2.40
2023-03-19T03:29:33.300Z,2.40
2023-03-19T03:32:21.030Z,2.30
2023-03-19T03:35:09.837Z,2.20
2023-03-19T03:37:58.075Z,2.20
2023-03-19T03:40:45.877Z,2.20
2023-03-19T03:43:34.001Z,2.20
2023-03-19T03:46:21.473Z,2.10
2023-03-19T03:49:09.025Z,2.10
2023-03-19T03:51:57.424Z,2.10
2023-03-19T03:54:44.906Z,2.10
2023-03-19T03:57:32.496Z,2.10
2023-03-19T04:00:20.794Z,2.10
2023-03-19T04:03:09.096Z,2.10
2023-03-19T04:05:57.326Z,2.10
2023-03-19T04:08:46.313Z,2.10
2023-03-19T04:11:35.576Z,2.10
2023-03-19T04:14:23.061Z,2.10
2023-03-19T04:17:11.172Z,2.20
2023-03-19T04:19:58.721Z,2.40
2023-03-19T04:22:46.811Z,2.50
2023-03-19T04:25:34.440Z,2.50
2023-03-19T04:28:21.897Z,2.60
2023-03-19T04:31:10.983Z,2.60
2023-03-19T04:33:58.551Z,2.60
2023-03-19T04:36:46.260Z,2.50
2023-03-19T04:39:33.741Z,2.50
2023-03-19T04:42:22.115Z,2.40
2023-03-19T04:45:10.141Z,2.30
2023-03-19T04:47:58.298Z,2.30
2023-03-19T04:50:47.327Z,2.20
2023-03-19T04:53:37.869Z,2.20
2023-03-19T04:56:25.808Z,2.10
2023-03-19T04:59:13.619Z,2.20
2023-03-19T05:02:01.190Z,2.20
2023-03-19T05:04:48.775Z,2.20
2023-03-19T05:07:36.495Z,2.20
2023-03-19T05:10:24.298Z,2.30
2023-03-19T05:13:11.809Z,2.20
2023-03-19T05:15:59.565Z,2.20
2023-03-19T05:18:47.902Z,2.20
2023-03-19T05:21:35.411Z,2.20
2023-03-19T05:24:23.950Z,2.30
2023-03-19T05:27:12.551Z,2.30
2023-03-19T05:30:01.569Z,2.40
2023-03-19T05:32:50.426Z,2.50
2023-03-19T05:35:38.662Z,2.50
2023-03-19T05:38:26.570Z,2.70
2023-03-19T05:41:14.085Z,2.80
2023-03-19T05:44:01.835Z,2.90
2023-03-19T05:46:49.394Z,3.00
2023-03-19T05:49:36.962Z,3.10
2023-03-19T05:52:24.462Z,3.30
2023-03-19T05:55:12.452Z,3.40
2023-03-19T05:57:59.905Z,3.50
2023-03-19T06:00:48.710Z,3.60
2023-03-19T06:03:36.398Z,3.70
2023-03-19T06:06:24.388Z,3.70
2023-03-19T06:09:12.216Z,3.90
2023-03-19T06:11:59.732Z,3.90
2023-03-19T06:14:48.207Z,3.90
2023-03-19T06:17:39.287Z,3.90
2023-03-19T06:20:27.729Z,4.10
2023-03-19T06:23:16.401Z,4.30
2023-03-19T06:26:05.882Z,4.60
2023-03-19T06:28:53.780Z,4.80
2023-03-19T06:31:41.872Z,4.90
2023-03-19T06:34:29.568Z,4.80
2023-03-19T06:37:17.247Z,4.70
2023-03-19T06:40:05.673Z,4.70
2023-03-19T06:42:53.277Z,4.70
2023-03-19T06:45:40.820Z,4.80
2023-03-19T06:48:28.316Z,4.90
2023-03-19T06:51:15.857Z,5.00
2023-03-19T06:54:03.438Z,5.20
2023-03-19T06:56:51.524Z,5.40
2023-03-19T06:59:39.213Z,5.60
2023-03-19T07:02:27.243Z,5.80
2023-03-19T07:05:15.535Z,6.00
2023-03-19T07:08:03.448Z,6.20
2023-03-19T07:10:51.021Z,6.40
2023-03-19T07:13:38.785Z,6.70
2023-03-19T07:16:26.385Z,6.90
2023-03-19T07:19:13.881Z,7.10
2023-03-19T07:22:01.542Z,7.30
2023-03-19T07:24:49.106Z,7.50
2023-03-19T07:27:36.650Z,7.40
2023-03-19T07:30:24.441Z,7.60
2023-03-19T07:33:12.567Z,7.60
2023-03-19T07:36:00.187Z,7.80
2023-03-19T07:38:47.758Z,8.00
2023-03-19T07:41:35.649Z,8.30
2023-03-19T07:44:23.144Z,8.60
2023-03-19T07:47:22.553Z,8.90
2023-03-19T07:50:13.830Z,9.10
2023-03-19T07:53:01.357Z,9.10
2023-03-19T07:55:49.261Z,9.10
2023-03-19T07:58:36.904Z,9.20
2023-03-19T08:01:24.391Z,9.20
2023-03-19T08:04:11.956Z,9.20
2023-03-19T08:06:59.435Z,9.20
2023-03-19T08:09:46.956Z,9.20
2023-03-19T08:12:40.936Z,9.20
2023-03-19T08:15:28.451Z,9.20
2023-03-19T08:18:16.031Z,9.30
2023-03-19T08:21:04.020Z,9.40
2023-03-19T08:23:52.668Z,9.50
2023-03-19T08:26:40.421Z,9.60
2023-03-19T08:29:28.212Z,9.70
2023-03-19T08:32:15.890Z,9.80
2023-03-19T08:35:04.951Z,9.80
2023-03-19T08:37:52.943Z,10.00
2023-03-19T08:40:40.705Z,10.00
2023-03-19T08:43:29.561Z,10.10
2023-03-19T08:46:17.126Z,9.80
2023-03-19T08:49:04.655Z,9.50
2023-03-19T08:51:52.386Z,9.80
2023-03-19T08:54:39.887Z,10.00
2023-03-19T08:57:27.445Z,10.30
2023-03-19T09:00:16.279Z,10.40
2023-03-19T09:03:04.105Z,10.60
2023-03-19T09:05:51.898Z,10.70
2023-03-19T09:08:39.391Z,10.90
2023-03-19T09:11:26.955Z,10.60
2023-03-19T09:14:16.776Z,10.90
2023-03-19T09:17:05.530Z,11.00
2023-03-19T09:19:52.974Z,11.30
2023-03-19T09:22:40.700Z,11.30
2023-03-19T09:25:28.246Z,11.60
2023-03-19T09:28:16.527Z,11.70
2023-03-19T09:31:07.451Z,12.10
2023-03-19T09:33:55.011Z,12.20
2023-03-19T09:36:42.480Z,12.00
2023-03-19T09:39:30.055Z,11.90
2023-03-19T09:42:57.373Z,11.70
2023-03-19T09:45:47.740Z,11.40
2023-03-19T09:48:56.119Z,11.60
2023-03-19T09:51:58.859Z,11.80
2023-03-19T09:54:57.152Z,12.00
2023-03-19T09:57:45.218Z,12.20
2023-03-19T10:00:38.953Z,12.20
2023-03-19T10:04:08.798Z,12.20
2023-03-19T10:07:23.864Z,12.40
2023-03-19T10:10:46.703Z,12.60
2023-03-19T10:14:17.767Z,13.00
2023-03-19T10:17:10.553Z,13.10
2023-03-19T10:20:28.267Z,13.20
2023-03-19T10:23:49.531Z,13.20
2023-03-19T10:26:37.074Z,13.30
2023-03-19T10:29:25.198Z,13.10
2023-03-19T10:32:29.675Z,13.00
2023-03-19T10:35:39.781Z,13.00
2023-03-19T10:38:28.250Z,13.30
2023-03-19T10:41:26.815Z,13.60
2023-03-19T10:44:40.628Z,13.80
2023-03-19T10:47:28.359Z,14.10
2023-03-19T10:50:23.667Z,14.40
2023-03-19T10:53:14.096Z,14.50
2023-03-19T10:56:26.064Z,14.70
2023-03-19T10:59:39.895Z,14.50
2023-03-19T11:02:32.021Z,14.30
2023-03-19T11:05:26.796Z,14.50
2023-03-19T11:08:34.815Z,14.70
2023-03-19T11:11:51.188Z,14.60
2023-03-19T11:14:44.671Z,14.70
2023-03-19T11:17:39.554Z,15.00
2023-03-19T11:20:29.137Z,15.10
2023-03-19T11:23:18.099Z,14.90
2023-03-19T11:26:05.954Z,14.90
2023-03-19T11:28:53.525Z,15.10
2023-03-19T11:32:21.595Z,15.10
2023-03-19T11:35:17.647Z,15.30
2023-03-19T11:38:17.237Z,15.30
2023-03-19T11:41:44.642Z,15.30
2023-03-19T11:44:49.367Z,15.30
2023-03-19T11:48:02.623Z,15.30
2023-03-19T11:51:08.363Z,15.30
2023-03-19T11:54:17.903Z,15.60
2023-03-19T11:57:17.199Z,15.60
2023-03-19T12:00:26.121Z,15.60
2023-03-19T12:03:52.641Z,15.70
2023-03-19T12:07:05.725Z,15.70
2023-03-19T12:10:35.114Z,15.90
2023-03-19T12:13:53.794Z,16.00
2023-03-19T12:17:10.193Z,15.50
2023-03-19T12:20:30.316Z,15.60
2023-03-19T12:23:27.186Z,15.70
2023-03-19T12:26:33.176Z,16.00
2023-03-19T12:30:03.869Z,16.00
2023-03-19T12:33:24.838Z,15.90
2023-03-19T12:36:29.443Z,15.80
2023-03-19T12:39:26.244Z,15.80
2023-03-19T12:42:21.427Z,15.90
2023-03-19T12:45:27.692Z,16.00
2023-03-19T12:48:28.912Z,16.30
2023-03-19T12:51:23.330Z,16.30
2023-03-19T12:54:20.984Z,16.30
2023-03-19T12:57:24.196Z,16.30
2023-03-19T13:01:03.566Z,16.40
2023-03-19T13:04:10.282Z,16.60
2023-03-19T13:07:34.334Z,16.80
2023-03-19T13:10:23.041Z,16.90
2023-03-19T13:13:49.448Z,17.00
2023-03-19T13:17:05.931Z,17.20
2023-03-19T13:19:56.371Z,17.30
2023-03-19T13:22:55.727Z,17.40
2023-03-19T13:25:50.548Z,17.50
2023-03-19T13:29:08.058Z,17.50
2023-03-19T13:32:30.556Z,17.50
2023-03-19T13:35:45.622Z,17.30
2023-03-19T13:38:49.064Z,17.40
2023-03-19T13:41:37.699Z,17.40
2023-03-19T13:44:33.262Z,17.40
2023-03-19T13:47:26.827Z,17.30
2023-03-19T13:50:20.532Z,17.50
2023-03-19T13:53:31.402Z,17.60
2023-03-19T13:56:29.424Z,17.60
2023-03-19T13:59:27.258Z,17.70
2023-03-19T14:02:27.092Z,17.70
2023-03-19T14:05:14.461Z,17.70
2023-03-19T14:08:14.413Z,17.60
2023-03-19T14:11:05.927Z,17.50
2023-03-19T14:13:54.588Z,17.50
2023-03-19T14:16:46.820Z,17.40
2023-03-19T14:19:42.253Z,17.40
2023-03-19T14:22:58.309Z,17.40
2023-03-19T14:26:06.680Z,17.40
2023-03-19T14:29:08.488Z,17.20
2023-03-19T14:32:08.784Z,17.10
2023-03-19T14:34:56.957Z,17.00
2023-03-19T14:37:51.427Z,16.90
2023-03-19T14:40:52.280Z,16.80
2023-03-19T14:44:08.968Z,16.80
2023-03-19T14:47:08.365Z,16.70
2023-03-19T14:50:26.248Z,16.60
2023-03-19T14:53:39.141Z,16.60
2023-03-19T14:56:37.048Z,16.50
2023-03-19T14:59:24.595Z,16.40
2023-03-19T15:02:53.890Z,16.20
2023-03-19T15:05:41.447Z,16.20
2023-03-19T15:08:33.603Z,16.10
2023-03-19T15:11:50.452Z,16.20
2023-03-19T15:15:07.280Z,16.10
2023-03-19T15:18:04.470Z,15.90
2023-03-19T15:20:57.122Z,15.90
2023-03-19T15:23:47.970Z,15.70
2023-03-19T15:26:37.563Z,15.60
2023-03-19T15:29:33.322Z,15.50
2023-03-19T15:33:10.488Z,15.30
2023-03-19T15:35:52.474Z,15.30
2023-03-19T15:38:52.461Z,15.20
2023-03-19T15:41:47.385Z,15.10
2023-03-19T15:44:47.154Z,15.00
2023-03-19T15:47:41.923Z,14.90
2023-03-19T15:50:35.722Z,14.80
2023-03-19T15:53:28.790Z,14.70
2023-03-19T15:56:20.369Z,14.60
2023-03-19T15:59:08.093Z,14.50
2023-03-19T16:02:02.030Z,14.50
2023-03-19T16:05:18.045Z,14.50
2023-03-19T16:08:18.934Z,14.50
2023-03-19T16:11:28.862Z,14.40
2023-03-19T16:14:25.018Z,14.30
2023-03-19T16:17:16.914Z,14.20
2023-03-19T16:20:06.289Z,14.20
2023-03-19T16:22:58.810Z,14.10
2023-03-19T16:25:47.274Z,14.10
2023-03-19T16:28:34.762Z,14.00
2023-03-19T16:31:29.878Z,13.90
2023-03-19T16:34:46.511Z,13.80
2023-03-19T16:37:55.288Z,13.80
2023-03-19T16:41:10.989Z,13.70
2023-03-19T16:44:29.316Z,13.60
2023-03-19T16:47:17.988Z,13.50
2023-03-19T16:50:06.431Z,13.50
2023-03-19T16:52:53.921Z,13.40
2023-03-19T16:55:42.260Z,13.20
2023-03-19T16:58:48.419Z,13.10
2023-03-19T17:01:36.010Z,13.00
2023-03-19T17:04:24.222Z,12.90
2023-03-19T17:07:12.622Z,12.70
2023-03-19T17:10:00.153Z,12.60
2023-03-19T17:12:54.478Z,12.50
2023-03-19T17:15:42.856Z,12.40
2023-03-19T17:18:38.486Z,12.20
2023-03-19T17:21:30.759Z,12.10
2023-03-19T17:24:36.636Z,11.90
2023-03-19T17:27:24.154Z,11.80
2023-03-19T17:30:13.857Z,11.70
2023-03-19T17:33:01.553Z,11.60
2023-03-19T17:35:49.247Z,11.50
2023-03-19T17:38:36.873Z,11.40
2023-03-19T17:41:24.588Z,11.40
2023-03-19T17:44:12.243Z,11.30
2023-03-19T17:46:59.929Z,11.20
2023-03-19T17:49:48.016Z,11.20
2023-03-19T17:52:36.401Z,11.10
2023-03-19T17:55:29.953Z,11.00
2023-03-19T17:58:21.355Z,11.00
2023-03-19T18:01:23.599Z,10.90
2023-03-19T18:04:19.611Z,10.80
2023-03-19T18:07:10.907Z,10.70
2023-03-19T18:09:58.417Z,10.60
2023-03-19T18:12:45.973Z,10.50
2023-03-19T18:15:34.586Z,10.40
2023-03-19T18:18:22.490Z,10.40
2023-03-19T18:21:15.707Z,10.30
2023-03-19T18:24:04.712Z,10.30
2023-03-19T18:26:52.199Z,10.20
2023-03-19T18:29:39.685Z,10.20
2023-03-19T18:32:32.773Z,10.10
2023-03-19T18:35:27.838Z,10.10
2023-03-19T18:38:22.846Z,10.10
2023-03-19T18:41:20.142Z,10.10
2023-03-19T18:44:09.270Z,10.00
2023-03-19T18:46:56.894Z,10.00
2023-03-19T18:49:44.862Z,10.00
2023-03-19T18:52:32.418Z,9.90
2023-03-19T18:55:26.843Z,9.90
2023-03-19T18:58:23.363Z,9.90
2023-03-19T19:01:18.093Z,9.90
2023-03-19T19:04:05.927Z,9.90
2023-03-19T19:06:54.629Z,9.80
2023-03-19T19:09:42.488Z,9.80
2023-03-19T19:12:30.167Z,9.70
2023-03-19T19:15:30.134Z,9.70
2023-03-19T19:18:29.166Z,9.60
2023-03-19T19:21:16.768Z,9.50
2023-03-19T19:24:04.596Z,9.50
2023-03-19T19:26:54.298Z,9.50
2023-03-19T19:29:42.397Z,9.40
2023-03-19T19:32:30.973Z,9.30
2023-03-19T19:35:26.831Z,9.20
2023-03-19T19:38:15.649Z,9.10
2023-03-19T19:41:04.531Z,9.00
2023-03-19T19:43:55.767Z,9.00
2023-03-19T19:46:44.086Z,9.00
2023-03-19T19:49:32.000Z,8.90
2023-03-19T19:52:20.401Z,8.90
2023-03-19T19:55:08.706Z,8.80
2023-03-19T19:57:58.063Z,8.70
2023-03-19T20:01:00.154Z,8.70
2023-03-19T20:03:52.129Z,8.60
2023-03-19T20:06:39.623Z,8.50
2023-03-19T20:09:27.558Z,8.40
2023-03-19T20:12:29.720Z,8.30
2023-03-19T20:15:35.078Z,8.30
2023-03-19T20:18:25.830Z,8.20
2023-03-19T20:21:15.144Z,8.20
2023-03-19T20:24:02.819Z,8.10
2023-03-19T20:26:50.458Z,8.10
2023-03-19T20:29:40.528Z,8.00
2023-03-19T20:32:38.478Z,8.00
2023-03-19T20:35:29.931Z,8.00
2023-03-19T20:38:17.668Z,7.90
2023-03-19T20:41:20.395Z,7.90
2023-03-19T20:44:07.924Z,7.90
2023-03-19T20:46:55.457Z,7.90
2023-03-19T20:49:43.232Z,7.80
2023-03-19T20:52:30.945Z,7.70
2023-03-19T20:55:22.707Z,7.80
2023-03-19T20:58:24.041Z,7.70
2023-03-19T21:01:11.927Z,7.60
2023-03-19T21:03:59.438Z,7.60
2023-03-19T21:06:53.461Z,7.50
2023-03-19T21:09:41.915Z,7.50
2023-03-19T21:12:33.349Z,7.40
2023-03-19T21:15:21.313Z,7.40
2023-03-19T21:18:09.197Z,7.40
2023-03-19T21:20:58.115Z,7.40
2023-03-19T21:23:59.857Z,7.40
2023-03-19T21:26:48.665Z,7.40
2023-03-19T21:29:36.389Z,7.30
2023-03-19T21:32:23.839Z,7.30
2023-03-19T21:35:21.576Z,7.20
2023-03-19T21:38:09.059Z,7.20
2023-03-19T21:41:05.114Z,7.20
2023-03-19T21:44:00.059Z,7.30
2023-03-19T21:46:48.675Z,7.30
2023-03-19T21:49:36.298Z,7.30
2023-03-19T21:52:23.782Z,7.30
2023-03-19T21:55:17.378Z,7.30
2023-03-19T21:58:09.941Z,7.30
2023-03-19T22:00:57.859Z,7.30
2023-03-19T22:03:45.919Z,7.30
2023-03-19T22:06:34.439Z,7.30
2023-03-19T22:09:21.929Z,7.30
2023-03-19T22:12:29.009Z,7.40
2023-03-19T22:15:31.287Z,7.40
2023-03-19T22:18:19.258Z,7.40
2023-03-19T22:21:09.317Z,7.30
2023-03-19T22:23:56.835Z,7.30
2023-03-19T22:26:47.230Z,7.30
2023-03-19T22:29:34.879Z,7.30
2023-03-19T22:32:22.457Z,7.40
2023-03-19T22:35:19.708Z,7.40
2023-03-19T22:38:07.285Z,7.50
2023-03-19T22:40:56.851Z,7.50
2023-03-19T22:43:46.467Z,7.60
2023-03-19T22:46:34.438Z,7.70
2023-03-19T22:49:21.983Z,7.80
2023-03-19T22:52:14.003Z,7.80
2023-03-19T22:55:01.532Z,7.90
2023-03-19T22:57:49.460Z,7.90
2023-03-19T23:00:37.446Z,8.00
2023-03-19T23:03:30.974Z,8.10
2023-03-19T23:06:30.682Z,8.10
2023-03-19T23:09:32.451Z,8.10
2023-03-19T23:12:20.600Z,8.10
2023-03-19T23:15:09.671Z,8.10
2023-03-19T23:17:59.644Z,8.20
2023-03-19T23:20:49.247Z,8.20
2023-03-19T23:23:37.631Z,8.20
2023-03-19T23:26:30.213Z,8.30
2023-03-19T23:29:22.376Z,8.30
2023-03-19T23:32:12.735Z,8.30
2023-03-19T23:35:01.849Z,8.30
2023-03-19T23:37:50.764Z,8.30
2023-03-19T23:40:46.953Z,8.40
2023-03-19T23:43:35.443Z,8.40
2023-03-19T23:46:23.040Z,8.40
2023-03-19T23:49:24.133Z,8.40
2023-03-19T23:52:14.268Z,8.50
2023-03-19T23:55:01.777Z,8.50
2023-03-19T23:57:50.363Z,8.50
